Time;durP1;ratioP1;P1;durP2;ratioP2;P2;SDS_P1;SDS_P2;PMS_P1;PMS_P2;Temp;Humidity;BMP_temperature;BMP_pressure;BME280_temperature;BME280_humidity;BME280_pressure;Samples;Min_cycle;Max_cycle;Signal;HPM_P1;HPM_P2
2024/04/13 00:01:34;;;;;;;7.57;4.10;;;;;;;13.21;100.00;69868.75;5520952;26;20077;-48
2024/04/13 00:04:07;;;;;;;8.70;4.03;;;;;;;13.21;100.00;69868.75;5521432;26;20009;-48
2024/04/13 00:06:38;;;;;;;7.68;4.03;;;;;;;13.20;100.00;69868.16;5521041;25;20002;-48
2024/04/13 00:09:10;;;;;;;8.57;3.47;;;;;;;13.16;100.00;69868.72;5517265;26;20009;-47
2024/04/13 00:11:41;;;;;;;9.77;4.20;;;;;;;13.13;100.00;69868.41;5521915;26;20001;-47
2024/04/13 00:14:09;;;;;;;10.10;3.28;;;;;;;13.11;100.00;69863.44;5521532;25;20024;-48
2024/04/13 00:16:40;;;;;;;8.18;4.22;;;;;;;13.09;100.00;69857.91;5521371;26;20005;-48
2024/04/13 00:19:11;;;;;;;9.70;4.07;;;;;;;13.07;100.00;69852.97;5521315;26;20484;-47
2024/04/13 00:21:42;;;;;;;9.50;4.47;;;;;;;13.06;100.00;69855.00;5515423;26;20012;-49
2024/04/13 00:24:11;;;;;;;13.02;4.35;;;;;;;13.05;100.00;69851.19;5519376;26;20005;-48
2024/04/13 00:26:42;;;;;;;9.02;4.80;;;;;;;13.01;100.00;69847.09;5517342;26;20020;-48
2024/04/13 00:29:10;;;;;;;7.72;4.13;;;;;;;12.99;100.00;69844.78;5522050;26;20017;-47
2024/04/13 00:31:41;;;;;;;10.40;4.97;;;;;;;12.97;100.00;69842.44;5516757;26;20020;-49
2024/04/13 00:34:12;;;;;;;9.70;4.43;;;;;;;13.00;100.00;69853.22;5515046;26;20001;-50
2024/04/13 00:36:43;;;;;;;9.02;4.22;;;;;;;12.99;100.00;69844.19;5521015;26;20016;-47
2024/04/13 00:39:11;;;;;;;9.60;4.38;;;;;;;12.97;100.00;69847.66;5521604;26;20017;-47
2024/04/13 00:41:43;;;;;;;7.75;4.05;;;;;;;12.98;100.00;69846.22;5482693;26;20025;-50
2024/04/13 00:44:11;;;;;;;9.10;4.27;;;;;;;12.98;100.00;69843.03;5517441;26;20035;-45
2024/04/13 00:46:42;;;;;;;7.72;3.75;;;;;;;12.97;100.00;69844.47;5520860;26;20358;-46
2024/04/13 00:49:13;;;;;;;7.63;3.92;;;;;;;12.95;100.00;69842.72;5513865;26;20006;-48
2024/04/13 00:51:49;;;;;;;10.20;4.23;;;;;;;12.96;100.00;69840.69;5515162;26;20004;-50
2024/04/13 00:54:22;;;;;;;10.13;4.32;;;;;;;12.95;100.00;69840.09;5512808;26;20299;-49
2024/04/13 00:56:56;;;;;;;8.23;4.25;;;;;;;12.96;100.00;69843.28;5522970;25;20018;-50
2024/04/13 00:59:26;;;;;;;7.57;3.95;;;;;;;12.98;100.00;69843.03;5521999;26;20078;-48
2024/04/13 01:01:59;;;;;;;9.52;3.58;;;;;;;12.98;100.00;69846.22;5524906;25;20017;-53
2024/04/13 01:04:32;;;;;;;11.25;3.58;;;;;;;12.96;100.00;69846.50;5477477;26;19998;-50
2024/04/13 01:07:03;;;;;;;8.40;3.47;;;;;;;12.95;100.00;69840.09;5520190;25;20016;-46
2024/04/13 01:09:31;;;;;;;7.75;3.40;;;;;;;12.92;100.00;69836.56;5524738;25;20295;-46
2024/04/13 01:12:05;;;;;;;9.05;3.75;;;;;;;12.91;100.00;69834.81;5524558;26;20001;-48
2024/04/13 01:14:35;;;;;;;7.07;3.65;;;;;;;12.92;100.00;69836.00;5524309;26;20002;-47
2024/04/13 01:17:09;;;;;;;7.38;3.85;;;;;;;12.89;100.00;69835.69;5519785;26;20456;-48
2024/04/13 01:19:41;;;;;;;7.30;3.65;;;;;;;12.87;100.00;69833.38;5524534;25;20012;-49
2024/04/13 01:22:12;;;;;;;7.00;3.80;;;;;;;12.84;100.00;69827.22;5520202;26;20005;-46
2024/04/13 01:24:42;;;;;;;6.97;3.72;;;;;;;12.83;100.00;69826.66;5524527;26;20009;-45
2024/04/13 01:27:14;;;;;;;6.88;3.72;;;;;;;12.79;100.00;69829.25;5515291;26;20016;-45
2024/04/13 01:29:43;;;;;;;7.53;3.65;;;;;;;12.78;100.00;69823.41;5520213;26;19997;-46
2024/04/13 01:32:14;;;;;;;8.88;3.53;;;;;;;12.77;100.00;69819.03;5524232;26;20020;-47
2024/04/13 01:34:42;;;;;;;7.38;3.38;;;;;;;12.75;100.00;69816.69;5524232;26;20036;-47
2024/04/13 01:37:13;;;;;;;10.02;4.13;;;;;;;12.73;100.00;69817.56;5523964;26;20012;-46
2024/04/13 01:39:44;;;;;;;8.75;4.18;;;;;;;12.70;100.00;69814.06;5524311;26;20390;-46
2024/04/13 01:42:15;;;;;;;6.90;3.55;;;;;;;12.70;100.00;69814.06;5523783;26;20374;-48
2024/04/13 01:44:43;;;;;;;8.35;4.18;;;;;;;12.70;100.00;69814.06;5519668;26;20008;-47
2024/04/13 01:47:14;;;;;;;8.38;3.72;;;;;;;12.67;100.00;69811.13;5521729;26;20382;-47
2024/04/13 01:49:42;;;;;;;10.50;4.10;;;;;;;12.67;100.00;69807.94;5518506;26;20005;-48
2024/04/13 01:52:13;;;;;;;8.20;3.97;;;;;;;12.66;100.00;69809.97;5523634;26;20875;-50
2024/04/13 01:54:43;;;;;;;8.68;4.15;;;;;;;12.64;100.00;69804.44;5524489;26;20034;-49
2024/04/13 01:57:14;;;;;;;8.75;3.72;;;;;;;12.61;100.00;69806.75;5520729;26;20328;-46
2024/04/13 01:59:43;;;;;;;6.88;3.63;;;;;;;12.58;100.00;69802.66;5523996;26;20012;-49
2024/04/13 02:02:13;;;;;;;7.90;3.80;;;;;;;12.54;100.00;69790.69;5519491;26;20050;-50
2024/04/13 02:04:41;;;;;;;7.40;3.70;;;;;;;12.53;100.00;69792.16;5523570;26;20001;-46
2024/04/13 02:07:12;;;;;;;8.32;3.95;;;;;;;12.50;100.00;69791.25;5521912;26;20005;-47
2024/04/13 02:09:40;;;;;;;7.78;3.97;;;;;;;12.44;100.00;69784.25;5519746;25;20190;-50
2024/04/13 02:12:14;;;;;;;8.70;4.00;;;;;;;12.43;100.00;69783.66;5521111;26;20009;-47
2024/04/13 02:14:42;;;;;;;7.93;4.20;;;;;;;12.42;100.00;69779.28;5519927;26;20010;-46
2024/04/13 02:17:13;;;;;;;8.63;4.03;;;;;;;12.38;100.00;69777.84;5523676;26;20020;-48
2024/04/13 02:19:42;;;;;;;8.20;4.20;;;;;;;12.33;100.00;69772.56;5519189;25;20009;-46
2024/04/13 02:22:13;;;;;;;10.25;4.25;;;;;;;12.30;100.00;69771.69;5523667;26;20012;-49
2024/04/13 02:24:43;;;;;;;8.77;4.32;;;;;;;12.25;100.00;69771.06;5523822;26;20456;-47
2024/04/13 02:27:17;;;;;;;7.03;3.90;;;;;;;12.20;100.00;69756.78;5521184;26;20062;-50
2024/04/13 02:29:46;;;;;;;8.98;3.78;;;;;;;12.17;100.00;69756.47;5523872;26;20009;-47
2024/04/13 02:32:16;;;;;;;9.23;3.83;;;;;;;12.13;100.00;69751.81;5523130;26;19994;-47
2024/04/13 02:34:44;;;;;;;8.23;4.28;;;;;;;12.09;100.00;69742.50;5523397;26;20013;-48
2024/04/13 02:37:15;;;;;;;7.65;3.90;;;;;;;12.05;100.00;69742.47;5521726;26;20002;-52
2024/04/13 02:39:43;;;;;;;7.32;3.85;;;;;;;12.03;100.00;69740.72;5518917;26;20001;-51
2024/04/13 02:42:17;;;;;;;9.70;4.20;;;;;;;12.00;100.00;69731.97;5516657;26;20089;-50
2024/04/13 02:44:48;;;;;;;7.78;3.72;;;;;;;11.95;100.00;69731.38;5523530;25;20019;-50
2024/04/13 02:47:18;;;;;;;8.45;4.03;;;;;;;11.93;100.00;69726.97;5518596;26;20073;-52
2024/04/13 02:49:46;;;;;;;10.00;4.70;;;;;;;11.88;100.00;69723.75;5523052;26;20001;-49
2024/04/13 02:52:17;;;;;;;7.75;4.20;;;;;;;11.87;100.00;69722.00;5517245;26;19993;-48
2024/04/13 02:54:45;;;;;;;8.80;4.80;;;;;;;11.82;100.00;69714.09;5490611;26;20329;-48
2024/04/13 02:57:18;;;;;;;10.05;4.53;;;;;;;11.79;100.00;69713.81;5522666;25;20308;-46
2024/04/13 02:59:46;;;;;;;8.30;4.13;;;;;;;11.76;100.00;69707.13;5519775;26;20098;-50
2024/04/13 03:02:17;;;;;;;7.22;4.00;;;;;;;11.74;100.00;69702.75;5522851;25;19998;-48
2024/04/13 03:04:45;;;;;;;7.72;4.32;;;;;;;11.71;100.00;69706.50;5517801;26;20011;-49
2024/04/13 03:07:16;;;;;;;8.50;4.40;;;;;;;11.69;100.00;69701.56;5517721;26;20009;-50
2024/04/13 03:09:45;;;;;;;7.43;4.50;;;;;;;11.66;100.00;69698.63;5517327;26;20009;-50
2024/04/13 03:12:18;;;;;;;8.82;4.03;;;;;;;11.64;100.00;69696.88;5522307;26;20098;-47
2024/04/13 03:14:46;;;;;;;9.48;4.47;;;;;;;11.62;100.00;69688.72;5522664;26;20001;-47
2024/04/13 03:17:17;;;;;;;9.45;4.38;;;;;;;11.58;100.00;69687.25;5522692;26;20334;-47
2024/04/13 03:19:45;;;;;;;8.45;4.60;;;;;;;11.57;100.00;69682.88;5517264;26;20002;-50
2024/04/13 03:22:16;;;;;;;9.55;4.45;;;;;;;11.55;100.00;69680.53;5517791;26;20005;-47
2024/04/13 03:24:44;;;;;;;10.55;4.85;;;;;;;11.54;100.00;69679.38;5522413;26;20732;-54
2024/04/13 03:27:15;;;;;;;10.18;4.75;;;;;;;11.55;100.00;69683.16;5517955;26;20016;-53
2024/04/13 03:29:46;;;;;;;8.32;4.25;;;;;;;11.50;100.00;69680.53;5518555;26;20441;-55
2024/04/13 03:32:17;;;;;;;9.00;4.72;;;;;;;11.48;100.00;69672.97;5521060;26;20001;-55
2024/04/13 03:34:45;;;;;;;8.40;4.70;;;;;;;11.44;100.00;69673.53;5522924;26;20029;-54
2024/04/13 03:37:17;;;;;;;8.35;4.32;;;;;;;11.41;100.00;69664.78;5518736;26;20009;-53
2024/04/13 03:39:48;;;;;;;7.30;4.22;;;;;;;11.39;100.00;69668.25;5517388;26;20472;-54
2024/04/13 03:42:16;;;;;;;8.68;5.10;;;;;;;11.41;100.00;69675.22;5520085;26;20070;-53
2024/04/13 03:44:50;;;;;;;9.32;5.10;;;;;;;11.37;100.00;69665.34;5518139;26;19998;-52
2024/04/13 03:47:18;;;;;;;9.60;4.55;;;;;;;11.36;100.00;69664.16;5518460;26;20085;-54
2024/04/13 03:49:49;;;;;;;8.13;4.57;;;;;;;11.30;100.00;69649.91;5511484;25;20002;-52
2024/04/13 03:52:17;;;;;;;9.07;4.85;;;;;;;11.27;100.00;69654.25;5517813;26;20012;-55
2024/04/13 03:54:48;;;;;;;10.10;5.03;;;;;;;11.23;100.00;69644.91;5517593;26;19997;-54
2024/04/13 03:57:16;;;;;;;11.13;4.85;;;;;;;11.19;100.00;69648.09;5485780;26;20008;-54
2024/04/13 03:59:50;;;;;;;9.40;4.90;;;;;;;11.14;100.00;69637.03;5521940;26;20444;-53
2024/04/13 04:02:18;;;;;;;9.35;4.65;;;;;;;11.11;100.00;69636.13;5518696;26;20001;-53
2024/04/13 04:04:49;;;;;;;10.25;4.40;;;;;;;11.09;100.00;69625.97;5489706;26;20437;-53
2024/04/13 04:07:17;;;;;;;8.95;4.80;;;;;;;11.06;100.00;69630.31;5518079;26;20037;-55
2024/04/13 04:09:48;;;;;;;10.90;4.63;;;;;;;11.03;100.00;69627.38;5517693;26;20013;-53
2024/04/13 04:12:16;;;;;;;9.32;5.10;;;;;;;10.99;100.00;69622.72;5516694;26;20013;-55
2024/04/13 04:14:49;;;;;;;9.77;4.93;;;;;;;10.97;100.00;69623.56;5484973;26;20009;-56
2024/04/13 04:17:17;;;;;;;9.50;5.20;;;;;;;10.94;100.00;69612.22;5518951;26;20888;-54
2024/04/13 04:19:48;;;;;;;10.57;5.47;;;;;;;10.91;100.00;69613.97;5516869;26;20323;-55
2024/04/13 04:22:16;;;;;;;9.82;4.57;;;;;;;10.85;100.00;69609.56;5517807;26;20004;-54
2024/04/13 04:24:47;;;;;;;9.63;4.72;;;;;;;10.83;100.00;69607.22;5515742;26;19997;-53
2024/04/13 04:27:16;;;;;;;9.30;5.22;;;;;;;10.82;100.00;69603.44;5522262;25;19998;-54
2024/04/13 04:29:49;;;;;;;9.13;5.28;;;;;;;10.82;100.00;69608.66;5470411;26;20078;-55
2024/04/13 04:32:17;;;;;;;14.18;4.95;;;;;;;10.79;100.00;69599.94;5519357;26;20041;-53
2024/04/13 04:34:48;;;;;;;9.10;4.72;;;;;;;10.78;100.00;69598.78;5514882;25;20002;-55
2024/04/13 04:37:16;;;;;;;9.95;5.25;;;;;;;10.73;100.00;69593.53;5517722;25;20073;-54
2024/04/13 04:39:47;;;;;;;10.38;5.80;;;;;;;10.72;100.00;69591.78;5516193;26;20079;-54
2024/04/13 04:42:15;;;;;;;10.95;5.50;;;;;;;10.69;100.00;69588.25;5517502;26;20437;-54
2024/04/13 04:44:49;;;;;;;11.13;5.05;;;;;;;10.68;100.00;69590.31;5518409;26;20513;-56
2024/04/13 04:47:18;;;;;;;8.75;4.68;;;;;;;10.68;100.00;69584.50;5521681;26;20004;-53
2024/04/13 04:49:49;;;;;;;8.85;4.80;;;;;;;10.68;100.00;69587.13;5521028;26;19997;-54
2024/04/13 04:52:17;;;;;;;8.48;4.70;;;;;;;10.65;100.00;69579.56;5520585;26;20070;-53
2024/04/13 04:54:48;;;;;;;8.88;5.20;;;;;;;10.64;100.00;69580.41;5521141;25;20008;-54
2024/04/13 04:57:16;;;;;;;8.93;5.25;;;;;;;10.64;100.00;69583.59;5521134;26;20046;-51
2024/04/13 04:59:50;;;;;;;9.45;4.90;;;;;;;10.67;100.00;69580.72;5521173;26;20437;-53
2024/04/13 05:02:18;;;;;;;8.88;5.43;;;;;;;10.67;100.00;69585.94;5516996;26;20057;-53
2024/04/13 05:04:48;;;;;;;9.27;5.53;;;;;;;10.69;100.00;69588.25;5514433;26;20005;-52
2024/04/13 05:07:16;;;;;;;11.80;6.00;;;;;;;10.71;100.00;69588.00;5516462;26;20049;-54
2024/04/13 05:09:47;;;;;;;8.50;4.95;;;;;;;10.71;100.00;69582.78;5517233;26;20016;-54
2024/04/13 05:12:15;;;;;;;14.73;6.28;;;;;;;10.71;100.00;69593.22;5516904;25;20002;-52
2024/04/13 05:14:46;;;;;;;9.30;5.50;;;;;;;10.75;100.00;69595.28;5520759;25;20001;-53
2024/04/13 05:17:17;;;;;;;9.32;5.80;;;;;;;10.74;100.00;69594.09;5516640;26;20001;-53
2024/04/13 05:19:47;;;;;;;12.10;5.60;;;;;;;10.73;100.00;69593.53;5520928;26;20013;-53
2024/04/13 05:22:16;;;;;;;8.48;5.70;;;;;;;10.76;100.00;69591.22;5516088;26;20010;-54
2024/04/13 05:24:46;;;;;;;11.35;6.10;;;;;;;10.78;100.00;69596.75;5487965;26;19998;-53
2024/04/13 05:27:14;;;;;;;11.60;6.50;;;;;;;10.77;100.00;69595.59;5520657;26;20390;-53
2024/04/13 05:29:50;;;;;;;10.63;6.20;;;;;;;10.78;100.00;69599.38;5519458;26;20455;-53
2024/04/13 05:32:20;;;;;;;12.48;6.25;;;;;;;10.79;100.00;69600.53;5510577;26;20053;-53
2024/04/13 05:34:51;;;;;;;11.65;6.75;;;;;;;10.81;100.00;69602.28;5518253;26;19998;-52
2024/04/13 05:37:19;;;;;;;11.95;6.43;;;;;;;10.82;100.00;69606.06;5520122;26;20008;-54
2024/04/13 05:39:51;;;;;;;13.63;6.38;;;;;;;10.82;100.00;69596.22;5520359;26;20017;-54
2024/04/13 05:42:20;;;;;;;11.68;6.50;;;;;;;10.86;100.00;69604.94;5522714;25;20425;-53
2024/04/13 05:44:51;;;;;;;10.15;6.10;;;;;;;10.90;100.00;69607.00;5517943;26;20012;-52
2024/04/13 05:47:21;;;;;;;12.48;6.72;;;;;;;10.91;100.00;69606.13;5519308;26;19997;-52
2024/04/13 05:49:54;;;;;;;12.25;7.07;;;;;;;10.96;100.00;69613.97;5518168;26;20038;-53
2024/04/13 05:52:22;;;;;;;12.85;7.40;;;;;;;11.00;100.00;69623.88;5520322;26;20064;-53
2024/04/13 05:54:52;;;;;;;15.10;7.78;;;;;;;11.04;100.00;69625.34;5519905;26;20451;-54
2024/04/13 05:57:21;;;;;;;12.85;7.22;;;;;;;11.11;100.00;69634.13;5519383;25;20005;-54
2024/04/13 05:59:52;;;;;;;12.10;6.88;;;;;;;11.21;100.00;69647.22;5522110;26;20024;-54
2024/04/13 06:02:26;;;;;;;13.32;8.15;;;;;;;11.24;100.00;69645.53;5517771;26;20335;-53
2024/04/13 06:04:57;;;;;;;13.38;7.75;;;;;;;11.34;100.00;69659.78;5516967;26;20972;-53
2024/04/13 06:07:25;;;;;;;14.55;7.97;;;;;;;11.40;100.00;69663.59;5519552;26;20001;-53
2024/04/13 06:09:55;;;;;;;13.90;7.88;;;;;;;11.50;100.00;69681.09;5521567;26;20130;-54
2024/04/13 06:12:23;;;;;;;12.43;7.97;;;;;;;11.60;100.00;69692.22;5517350;26;20013;-54
2024/04/13 06:14:57;;;;;;;13.25;7.57;;;;;;;11.69;100.00;69701.56;5486444;26;20456;-53
2024/04/13 06:17:28;;;;;;;13.68;7.88;;;;;;;11.77;100.00;69711.47;5518536;26;20018;-52
2024/04/13 06:19:58;;;;;;;13.98;8.27;;;;;;;11.84;100.00;69713.84;5524413;26;20044;-53
2024/04/13 06:22:26;;;;;;;14.45;7.80;;;;;;;11.92;100.00;69730.47;5517426;25;20357;-54
2024/04/13 06:24:57;;;;;;;16.48;7.95;;;;;;;11.99;100.00;69728.78;5519212;26;20451;-54
2024/04/13 06:27:25;;;;;;;15.48;9.32;;;;;;;12.08;100.00;69740.72;5522249;26;20029;-53
2024/04/13 06:29:56;;;;;;;16.48;9.55;;;;;;;12.16;100.00;69752.69;5523417;26;20008;-54
2024/04/13 06:32:24;;;;;;;14.82;10.52;;;;;;;12.26;100.00;69764.38;5519319;26;20001;-52
2024/04/13 06:34:58;;;;;;;16.00;10.00;;;;;;;12.33;100.00;69775.19;5511811;26;20689;-54
2024/04/13 06:37:26;;;;;;;16.45;10.63;;;;;;;12.39;100.00;69775.78;5519522;25;20069;-54
2024/04/13 06:39:57;;;;;;;15.75;11.00;;;;;;;12.43;100.00;69777.84;5518702;26;20991;-53
2024/04/13 06:42:25;;;;;;;17.90;10.45;;;;;;;12.50;100.00;69789.25;5523325;26;20049;-54
2024/04/13 06:44:56;;;;;;;16.30;11.10;;;;;;;12.62;100.00;69804.72;5523276;26;20012;-54
2024/04/13 06:47:24;;;;;;;16.60;11.65;;;;;;;12.73;100.00;69814.38;5523631;26;20437;-54
2024/04/13 06:49:57;;;;;;;18.05;11.70;;;;;;;12.82;100.00;69824.91;5528037;25;20019;-54
2024/04/13 06:52:25;;;;;;;13.60;11.02;;;;;;;12.92;100.00;69833.38;5523030;25;20001;-54
2024/04/13 06:54:56;;;;;;;16.52;11.80;;;;;;;13.04;100.00;69852.66;5523409;26;19993;-54
2024/04/13 06:57:25;;;;;;;15.93;11.25;;;;;;;13.13;100.00;69862.56;5524612;26;19997;-55
2024/04/13 06:59:56;;;;;;;14.73;11.20;;;;;;;13.22;100.00;69872.53;5524672;26;20468;-54
2024/04/13 07:02:26;;;;;;;16.50;10.52;;;;;;;13.30;100.00;69881.88;5524530;26;20001;-55
2024/04/13 07:05:00;;;;;;;14.90;10.82;;;;;;;13.39;100.00;69897.09;5523824;26;20014;-52
2024/04/13 07:07:32;;;;;;;14.73;10.88;;;;;;;13.46;100.00;69897.44;5523924;26;20005;-55
2024/04/13 07:10:00;;;;;;;15.97;11.07;;;;;;;13.60;100.00;69913.22;5522993;26;20753;-53
2024/04/13 07:12:30;;;;;;;14.75;11.10;;;;;;;13.66;100.00;69920.81;5520545;26;20706;-55
2024/04/13 07:14:59;;;;;;;16.30;11.73;;;;;;;13.79;100.00;69938.06;5522007;26;20021;-55
2024/04/13 07:17:29;;;;;;;19.52;10.98;;;;;;;13.89;100.00;69943.34;5520278;26;19994;-54
2024/04/13 07:20:00;;;;;;;17.13;11.13;;;;;;;14.05;100.00;69961.50;5516949;26;20005;-52
2024/04/13 07:22:31;;;;;;;15.30;10.85;;;;;;;14.16;100.00;69980.19;5524396;26;19997;-54
2024/04/13 07:24:59;;;;;;;16.27;10.80;;;;;;;14.27;100.00;69989.84;5524103;26;20005;-54
2024/04/13 07:27:29;;;;;;;15.00;9.80;;;;;;;14.40;100.00;70003.88;5521906;26;20004;-54
2024/04/13 07:29:57;;;;;;;15.48;9.90;;;;;;;14.55;100.00;70021.47;5519305;25;20001;-53
2024/04/13 07:32:28;;;;;;;15.45;9.90;;;;;;;14.70;100.00;70044.28;5519196;26;20053;-52
2024/04/13 07:34:56;;;;;;;15.55;10.27;;;;;;;14.88;100.00;70064.22;5519753;26;19997;-54
2024/04/13 07:37:30;;;;;;;16.52;9.68;;;;;;;15.03;100.00;70075.94;5521583;26;19997;-52
2024/04/13 07:39:58;;;;;;;15.13;8.77;;;;;;;15.18;100.00;70098.16;5519568;26;20015;-53
2024/04/13 07:42:29;;;;;;;13.93;8.98;;;;;;;15.33;100.00;70110.47;5522734;26;20001;-53
2024/04/13 07:44:57;;;;;;;12.10;7.88;;;;;;;15.50;100.00;70129.81;5519257;26;20005;-55
2024/04/13 07:47:28;;;;;;;12.77;8.32;;;;;;;15.62;100.00;70145.91;5518695;26;19998;-54
2024/04/13 07:49:56;;;;;;;12.68;7.82;;;;;;;15.79;100.00;70160.00;5520195;26;20004;-53
2024/04/13 07:52:30;;;;;;;13.60;8.55;;;;;;;15.97;100.00;70182.56;5523593;25;20069;-54
2024/04/13 07:54:58;;;;;;;13.15;8.05;;;;;;;16.11;100.00;70198.38;5523346;26;20444;-53
2024/04/13 07:57:30;;;;;;;14.73;8.20;;;;;;;16.23;100.00;70217.72;5523026;26;19993;-54
2024/04/13 07:59:58;;;;;;;12.23;7.63;;;;;;;16.36;100.00;70227.09;5521731;25;20025;-54
2024/04/13 08:02:29;;;;;;;12.75;7.57;;;;;;;16.48;100.00;70243.22;5518451;26;20001;-54
2024/04/13 08:04:57;;;;;;;14.23;7.82;;;;;;;16.66;100.00;70261.69;5514141;26;20012;-53
2024/04/13 08:07:30;;;;;;;10.60;7.35;;;;;;;16.79;100.00;70276.34;5518679;26;20004;-52
2024/04/13 08:09:58;;;;;;;11.82;7.43;;;;;;;16.90;100.00;70286.03;5522538;26;20025;-53
2024/04/13 08:12:29;;;;;;;13.10;6.97;;;;;;;17.03;100.00;70306.56;5522000;26;20442;-56
2024/04/13 08:14:57;;;;;;;12.68;7.25;;;;;;;17.21;100.00;70326.50;5518750;26;20345;-54
2024/04/13 08:17:29;;;;;;;10.85;7.07;;;;;;;17.32;100.00;70342.03;5520324;26;20057;-55
2024/04/13 08:19:57;;;;;;;10.48;6.88;;;;;;;17.49;100.00;70358.16;5516827;25;20074;-55
2024/04/13 08:22:30;;;;;;;10.88;6.65;;;;;;;17.61;100.00;70369.59;5518278;26;19998;-56
2024/04/13 08:24:59;;;;;;;11.05;6.90;;;;;;;17.82;100.00;70396.31;5520519;26;20001;-54
2024/04/13 08:27:31;;;;;;;11.65;7.72;;;;;;;17.92;100.00;70404.84;5518944;26;20002;-55
2024/04/13 08:30:00;;;;;;;12.40;7.05;;;;;;;17.98;100.00;70411.88;5488709;26;20429;-55
2024/04/13 08:32:31;;;;;;;10.70;6.32;;;;;;;18.10;100.00;70427.44;5481467;26;20020;-55
2024/04/13 08:34:59;;;;;;;11.90;6.18;;;;;;;18.23;100.00;70440.63;5479617;26;20022;-55
2024/04/13 08:37:32;;;;;;;10.65;6.65;;;;;;;18.30;100.00;70450.91;5483588;26;19994;-55
2024/04/13 08:40:00;;;;;;;12.77;7.30;;;;;;;18.44;100.00;70464.13;5485934;26;20013;-56
2024/04/13 08:42:37;;;;;;;11.93;6.57;;;;;;;18.51;100.00;70472.31;5489401;26;20446;-54
2024/04/13 08:45:09;;;;;;;11.68;7.00;;;;;;;18.61;100.00;70485.53;5522557;26;20492;-55
2024/04/13 08:47:41;;;;;;;13.05;7.18;;;;;;;18.75;100.00;70499.91;5522529;25;20043;-55
2024/04/13 08:50:09;;;;;;;10.93;7.15;;;;;;;18.86;100.00;70511.69;5522316;26;20298;-56
2024/04/13 08:52:49;;;;;;;10.98;7.30;;;;;;;18.91;100.00;70518.16;5522293;26;20069;-56
2024/04/13 08:55:18;;;;;;;11.75;7.15;;;;;;;18.94;100.00;70521.09;5522386;25;20453;-54
2024/04/13 08:57:50;;;;;;;11.00;6.93;;;;;;;19.06;100.00;70535.19;5522054;26;20703;-55
2024/04/13 09:00:20;;;;;;;10.85;6.63;;;;;;;19.19;100.00;70549.84;5517504;26;20037;-55
2024/04/13 09:02:58;;;;;;;12.15;6.45;;;;;;;19.32;100.00;70563.94;5519443;26;20072;-55
2024/04/13 09:05:26;;;;;;;10.70;6.50;;;;;;;19.51;100.00;70585.69;5522075;26;20448;-57
2024/04/13 09:08:00;;;;;;;11.45;6.40;;;;;;;19.57;100.00;70590.09;5522239;26;20033;-56
2024/04/13 09:10:29;;;;;;;11.18;5.97;;;;;;;19.74;100.00;70617.41;5517672;26;20743;-55
2024/04/13 09:13:00;;;;;;;10.25;6.00;;;;;;;19.82;100.00;70623.63;5517793;25;20013;-56
2024/04/13 09:15:28;;;;;;;10.43;6.07;;;;;;;19.95;100.00;70640.94;5519147;25;20056;-55
2024/04/13 09:18:00;;;;;;;8.60;5.47;;;;;;;20.13;100.00;70656.22;5525086;26;19993;-56
2024/04/13 09:20:29;;;;;;;10.40;5.97;;;;;;;20.15;100.00;70659.16;5525653;26;20022;-55
2024/04/13 09:23:04;;;;;;;12.73;6.10;;;;;;;20.17;100.00;70661.50;5521026;26;19997;-56
2024/04/13 09:25:32;;;;;;;10.80;6.05;;;;;;;20.42;100.00;70690.31;5520027;26;20005;-56
2024/04/13 09:28:04;;;;;;;14.18;7.10;;;;;;;20.48;100.00;70696.19;5520257;26;20013;-55
2024/04/13 09:30:33;;;;;;;10.93;7.10;;;;;;;20.37;100.00;70689.13;5522690;26;20002;-56
2024/04/13 09:33:06;;;;;;;10.77;6.60;;;;;;;20.64;100.00;70714.41;5524152;26;20001;-56
2024/04/13 09:35:35;;;;;;;12.23;6.80;;;;;;;20.90;100.00;70747.06;5519336;26;20057;-55
2024/04/13 09:38:09;;;;;;;11.55;7.60;;;;;;;20.91;100.00;70746.19;5524787;26;20006;-56
2024/04/13 09:40:37;;;;;;;11.57;7.15;;;;;;;20.73;100.00;70727.69;5551614;25;19997;-56
2024/04/13 09:43:08;;;;;;;12.52;7.30;;;;;;;20.88;100.00;70740.00;5523687;26;20357;-55
2024/04/13 09:45:39;;;;;;;10.90;6.78;;;;;;;21.04;100.00;70758.25;5523350;25;20013;-55
2024/04/13 09:48:10;;;;;;;12.32;6.93;;;;;;;21.28;100.00;70790.59;5520489;26;20077;-56
2024/04/13 09:50:38;;;;;;;12.68;8.00;;;;;;;21.27;100.00;70792.66;5523787;26;20050;-56
2024/04/13 09:53:12;;;;;;;13.13;8.23;;;;;;;21.14;100.00;70774.13;5523301;25;20073;-55
2024/04/13 09:55:41;;;;;;;10.55;7.22;;;;;;;21.34;100.00;70795.00;5520181;26;20015;-56
2024/04/13 09:58:14;;;;;;;13.35;7.85;;;;;;;21.37;100.00;70801.19;5519325;25;20013;-56
2024/04/13 10:00:43;;;;;;;11.70;7.28;;;;;;;21.47;100.00;70811.78;5517920;25;20021;-56
2024/04/13 10:03:14;;;;;;;13.18;8.23;;;;;;;21.57;100.00;70821.50;5490568;26;20332;-56
2024/04/13 10:05:44;;;;;;;12.25;7.30;;;;;;;21.74;100.00;70843.56;5523683;25;20035;-55
2024/04/13 10:08:17;;;;;;;12.73;7.00;;;;;;;22.03;100.00;70876.53;5518963;26;20073;-56
2024/04/13 10:10:49;;;;;;;12.18;7.10;;;;;;;22.19;100.00;70894.19;5523464;26;20009;-55
2024/04/13 10:13:27;;;;;;;15.02;7.47;;;;;;;22.21;100.00;70897.13;5520743;25;20060;-56
2024/04/13 10:15:58;;;;;;;14.05;7.13;;;;;;;22.40;100.00;70920.97;5523528;26;20001;-57
2024/04/13 10:18:29;;;;;;;13.82;7.10;;;;;;;22.62;100.00;70941.00;5519066;26;20005;-55
2024/04/13 10:21:02;;;;;;;10.93;6.68;;;;;;;22.48;100.00;70925.06;5484502;26;20005;-56
2024/04/13 10:23:44;;;;;;;12.30;7.03;;;;;;;22.56;100.00;70939.81;5523149;26;20017;-56
2024/04/13 10:26:12;;;;;;;12.82;6.45;;;;;;;22.73;100.00;70950.69;5521658;25;20013;-55
2024/04/13 10:28:44;;;;;;;10.27;6.43;;;;;;;22.73;100.00;70953.34;5519231;26;20065;-56
2024/04/13 10:31:18;;;;;;;13.00;5.85;;;;;;;22.85;100.00;70972.19;5488541;26;20013;-56
2024/04/13 10:33:56;;;;;;;13.55;6.10;;;;;;;23.24;100.00;71016.97;5518367;26;20054;-55
2024/04/13 10:36:28;;;;;;;11.82;6.68;;;;;;;23.31;100.00;71022.56;5516734;26;20009;-55
2024/04/13 10:39:05;;;;;;;12.20;6.03;;;;;;;23.62;100.00;71055.25;5522665;26;20891;-55
2024/04/13 10:41:34;;;;;;;12.60;6.25;;;;;;;23.59;100.00;71046.38;5523516;25;19998;-55
2024/04/13 10:44:09;;;;;;;10.60;5.88;;;;;;;23.59;100.00;71051.72;5522977;26;20006;-55
2024/04/13 10:46:40;;;;;;;9.20;5.10;;;;;;;23.55;100.00;71052.34;5488468;26;20001;-56
2024/04/13 10:49:11;;;;;;;11.68;5.80;;;;;;;23.45;100.00;71035.78;5521295;26;20005;-57
2024/04/13 10:51:44;;;;;;;8.90;5.03;;;;;;;23.77;100.00;71072.34;5515739;26;20112;-56
2024/04/13 10:54:20;;;;;;;8.20;4.60;;;;;;;24.10;100.00;71110.06;5518967;26;20037;-56
2024/04/13 10:56:48;;;;;;;9.30;4.82;;;;;;;23.96;100.00;71096.81;5517764;26;20082;-56
2024/04/13 10:59:29;;;;;;;10.77;5.75;;;;;;;24.20;100.00;71123.91;5523163;26;20016;-56
2024/04/13 11:01:59;;;;;;;10.13;4.90;;;;;;;24.27;100.00;71129.50;5518901;26;20070;-56
2024/04/13 11:04:30;;;;;;;10.30;4.78;;;;;;;24.16;100.00;71121.88;5516586;26;20453;-56
2024/04/13 11:07:00;;;;;;;8.98;4.47;;;;;;;24.35;100.00;71144.28;5518367;26;19993;-56
2024/04/13 11:09:33;;;;;;;8.20;4.10;;;;;;;24.55;100.00;71166.66;5518373;26;20330;-56
2024/04/13 11:12:02;;;;;;;7.60;3.83;;;;;;;24.76;100.00;71186.13;5518403;25;20441;-56
2024/04/13 11:14:32;;;;;;;8.50;3.90;;;;;;;24.86;100.00;71196.72;5486323;26;20014;-56
2024/04/13 11:17:00;;;;;;;8.80;4.03;;;;;;;24.85;99.16;71195.56;5518540;26;20001;-56
2024/04/13 11:19:31;;;;;;;7.75;3.30;;;;;;;25.21;98.31;71239.47;5522172;25;20009;-56
2024/04/13 11:22:02;;;;;;;7.38;2.95;;;;;;;25.44;97.53;71266.03;5521947;26;20065;-56
2024/04/13 11:24:35;;;;;;;9.75;3.72;;;;;;;25.61;95.86;71282.84;5522338;26;20017;-56
2024/04/13 11:27:05;;;;;;;7.55;3.20;;;;;;;25.62;91.21;71284.03;5522629;26;20005;-57
2024/04/13 11:29:37;;;;;;;7.55;3.08;;;;;;;25.65;91.81;71292.91;5486051;26;20001;-49
2024/04/13 11:32:06;;;;;;;12.10;5.45;;;;;;;25.92;90.28;71318.22;5508656;26;20081;-54
2024/04/13 11:34:39;;;;;;;8.43;3.53;;;;;;;25.94;87.20;71323.84;5522282;26;20444;-51